Time;durP1;ratioP1;P1;durP2;ratioP2;P2;SDS_P1;SDS_P2;PMS_P1;PMS_P2;Temp;Humidity;BMP_temperature;BMP_pressure;BME280_temperature;BME280_humidity;BME280_pressure;Samples;Min_cycle;Max_cycle;Signal;HPM_P1;HPM_P2
2023/07/28 00:00:42;;;;;;;;;;;18.20;99.90;;;;;;6022654;23;20005;-73
2023/07/28 00:03:08;;;;;;;;;;;18.10;99.90;;;;;;6025965;23;20551;-67
2023/07/28 00:05:33;;;;;;;;;;;18.10;99.90;;;;;;5999494;23;19927;-66
2023/07/28 00:07:59;;;;;;;;;;;18.20;99.90;;;;;;6024751;23;19958;-66
2023/07/28 00:10:24;;;;;;;;;;;18.20;99.90;;;;;;6025757;23;19918;-66
2023/07/28 00:12:50;;;;;;;;;;;18.20;99.90;;;;;;6027451;23;19934;-66
2023/07/28 00:15:16;;;;;;;;;;;18.20;99.90;;;;;;6000626;23;19935;-66
2023/07/28 00:17:42;;;;;;;;;;;18.20;99.90;;;;;;6027271;23;20262;-66
2023/07/28 00:20:08;;;;;;;;;;;18.20;99.90;;;;;;6025956;23;19962;-72
2023/07/28 00:22:33;;;;;;;;;;;18.20;99.90;;;;;;6027399;23;19923;-66
2023/07/28 00:24:59;;;;;;;;;;;18.20;99.90;;;;;;6025775;23;19970;-67
2023/07/28 00:27:24;;;;;;;;;;;18.20;99.90;;;;;;6024633;23;20302;-67
2023/07/28 00:29:50;;;;;;;;;;;18.20;99.90;;;;;;6022528;23;19981;-67
2023/07/28 00:32:15;;;;;;;;;;;18.20;99.90;;;;;;6021540;23;19934;-66
2023/07/28 00:34:41;;;;;;;;;;;18.20;99.90;;;;;;6019844;23;19975;-66
2023/07/28 00:37:06;;;;;;;;;;;18.20;99.90;;;;;;6021441;23;20057;-66
2023/07/28 00:39:32;;;;;;;;;;;18.20;99.90;;;;;;6021591;23;20012;-66
2023/07/28 00:41:57;;;;;;;;;;;18.20;99.90;;;;;;6022603;23;19933;-71
2023/07/28 00:44:23;;;;;;;;;;;18.20;99.90;;;;;;6020083;23;20335;-70
2023/07/28 00:46:48;;;;;;;;;;;18.20;99.90;;;;;;6021778;23;19930;-70
2023/07/28 00:49:14;;;;;;;;;;;18.30;99.90;;;;;;6021590;23;19938;-70
2023/07/28 00:51:39;;;;;;;;;;;18.30;99.90;;;;;;6019860;23;19927;-70
2023/07/28 00:54:05;;;;;;;;;;;18.30;99.90;;;;;;6020487;23;20057;-70
2023/07/28 00:56:31;;;;;;;;;;;18.30;99.90;;;;;;6024055;23;20337;-71
2023/07/28 00:58:57;;;;;;;;;;;18.30;99.90;;;;;;6019311;23;20784;-66
2023/07/28 01:01:22;;;;;;;;;;;18.30;99.90;;;;;;6023011;23;20319;-66
2023/07/28 01:03:48;;;;;;;;;;;18.30;99.90;;;;;;6021787;23;20385;-66
2023/07/28 01:06:20;;;;;;;;;;;18.30;99.90;;;;;;6024220;23;20048;-66
2023/07/28 01:08:49;;;;;;;;;;;18.30;99.90;;;;;;5992445;23;20007;-66
2023/07/28 01:11:14;;;;;;;;;;;18.30;99.90;;;;;;6021172;23;19929;-66
2023/07/28 01:13:40;;;;;;;;;;;18.30;99.90;;;;;;6019132;23;19923;-66
2023/07/28 01:16:06;;;;;;;;;;;18.40;99.90;;;;;;6022962;23;19948;-66
2023/07/28 01:18:32;;;;;;;;;;;18.40;99.90;;;;;;6018981;23;19947;-66
2023/07/28 01:21:00;;;;;;;;;;;18.30;99.90;;;;;;6022806;23;20405;-66
2023/07/28 01:23:48;;;;;;;;;;;18.30;99.90;;;;;;6020927;23;20067;-66
2023/07/28 01:26:15;;;;;;;;;;;18.20;99.90;;;;;;5997800;23;19988;-66
2023/07/28 01:28:41;;;;;;;;;;;18.20;99.90;;;;;;6018494;23;20001;-66
2023/07/28 01:31:07;;;;;;;;;;;18.20;99.90;;;;;;6021289;23;19926;-66
2023/07/28 01:33:33;;;;;;;;;;;18.20;99.90;;;;;;6023526;23;19945;-66
2023/07/28 01:36:00;;;;;;;;;;;18.10;99.90;;;;;;6022839;23;19979;-70
2023/07/28 01:38:26;;;;;;;;;;;18.10;99.90;;;;;;6022980;23;19928;-70
2023/07/28 01:40:52;;;;;;;;;;;18.00;99.90;;;;;;6023231;23;19929;-70
2023/07/28 01:43:17;;;;;;;;;;;18.00;99.90;;;;;;6022727;23;19951;-71
2023/07/28 01:45:43;;;;;;;;;;;18.00;99.90;;;;;;6024473;23;20003;-71
2023/07/28 01:48:09;;;;;;;;;;;17.90;99.90;;;;;;6021592;23;19934;-70
2023/07/28 01:50:35;;;;;;;;;;;17.90;99.90;;;;;;6023468;23;19993;-71
2023/07/28 01:53:00;;;;;;;;;;;17.90;99.90;;;;;;6021054;23;19929;-71
2023/07/28 01:55:26;;;;;;;;;;;17.90;99.90;;;;;;6021855;23;19916;-69
2023/07/28 01:57:59;;;;;;;;;;;17.90;99.90;;;;;;6021477;23;19954;-69
2023/07/28 02:00:25;;;;;;;;;;;17.90;99.90;;;;;;6024274;23;19962;-69
2023/07/28 02:02:51;;;;;;;;;;;17.90;99.90;;;;;;5996268;23;19954;-69
2023/07/28 02:05:16;;;;;;;;;;;17.90;99.90;;;;;;6023544;23;19929;-69
2023/07/28 02:07:42;;;;;;;;;;;18.00;99.90;;;;;;6023296;23;20609;-69
2023/07/28 02:10:08;;;;;;;;;;;18.00;99.90;;;;;;6024031;23;19998;-69
2023/07/28 02:12:33;;;;;;;;;;;18.00;99.90;;;;;;6024151;23;20467;-69
2023/07/28 02:14:59;;;;;;;;;;;18.10;99.90;;;;;;6022852;23;19922;-69
2023/07/28 02:17:24;;;;;;;;;;;18.20;99.90;;;;;;6023160;23;20031;-69
2023/07/28 02:19:50;;;;;;;;;;;18.20;99.90;;;;;;6025270;23;19933;-69
2023/07/28 02:22:15;;;;;;;;;;;18.20;99.90;;;;;;6023656;23;19922;-69
2023/07/28 02:24:41;;;;;;;;;;;18.20;99.90;;;;;;6024030;23;20005;-69
2023/07/28 02:27:06;;;;;;;;;;;18.30;99.90;;;;;;6024394;23;19930;-69
2023/07/28 02:29:32;;;;;;;;;;;18.30;99.90;;;;;;6024361;23;19926;-69
2023/07/28 02:31:57;;;;;;;;;;;18.30;99.90;;;;;;6023265;23;19927;-69
2023/07/28 02:34:23;;;;;;;;;;;18.30;99.90;;;;;;6022690;23;20026;-68
2023/07/28 02:36:48;;;;;;;;;;;18.30;99.90;;;;;;6021013;23;19949;-69
2023/07/28 02:39:14;;;;;;;;;;;18.30;99.90;;;;;;5998431;23;20383;-69
2023/07/28 02:41:39;;;;;;;;;;;18.30;99.90;;;;;;6021397;23;19927;-69
2023/07/28 02:44:05;;;;;;;;;;;18.30;99.90;;;;;;6022275;23;19998;-69
2023/07/28 02:46:30;;;;;;;;;;;18.30;99.90;;;;;;6021547;23;20341;-69
2023/07/28 02:48:56;;;;;;;;;;;18.40;99.90;;;;;;6023088;23;19983;-65
2023/07/28 02:51:21;;;;;;;;;;;18.30;99.90;;;;;;6025221;23;19959;-65
2023/07/28 02:53:47;;;;;;;;;;;18.30;99.90;;;;;;6022099;23;20004;-64
2023/07/28 02:56:12;;;;;;;;;;;18.30;99.90;;;;;;6022739;23;19955;-65
2023/07/28 02:58:38;;;;;;;;;;;18.30;99.90;;;;;;5996737;23;19932;-65
2023/07/28 03:01:03;;;;;;;;;;;18.20;99.90;;;;;;6023571;23;20036;-65
2023/07/28 03:03:29;;;;;;;;;;;18.20;99.90;;;;;;6022375;23;19932;-65
2023/07/28 03:05:54;;;;;;;;;;;18.20;99.90;;;;;;6021993;23;19950;-65
2023/07/28 03:08:20;;;;;;;;;;;18.10;99.90;;;;;;6023380;23;19936;-69
2023/07/28 03:10:45;;;;;;;;;;;18.10;99.90;;;;;;6024536;23;19925;-69
2023/07/28 03:13:11;;;;;;;;;;;18.10;99.90;;;;;;6019884;23;19932;-69
2023/07/28 03:15:36;;;;;;;;;;;18.00;99.90;;;;;;6018968;23;20241;-69
2023/07/28 03:18:02;;;;;;;;;;;18.00;99.90;;;;;;6022358;23;19924;-69
2023/07/28 03:20:28;;;;;;;;;;;18.00;99.90;;;;;;6023409;23;19950;-69
2023/07/28 03:22:54;;;;;;;;;;;18.00;99.90;;;;;;6023131;23;19920;-69
2023/07/28 03:25:20;;;;;;;;;;;18.00;99.90;;;;;;6023133;23;20046;-65
2023/07/28 03:27:45;;;;;;;;;;;18.00;99.90;;;;;;6023288;23;20667;-65
2023/07/28 03:30:11;;;;;;;;;;;18.10;99.90;;;;;;6023040;23;19926;-65
2023/07/28 03:32:37;;;;;;;;;;;18.10;99.90;;;;;;6020499;23;20315;-65
2023/07/28 03:35:04;;;;;;;;;;;18.20;99.90;;;;;;6021529;23;20022;-65
2023/07/28 03:37:33;;;;;;;;;;;18.20;99.90;;;;;;5997217;23;19959;-65
2023/07/28 03:39:59;;;;;;;;;;;18.20;99.90;;;;;;5997333;23;20376;-65
2023/07/28 03:42:24;;;;;;;;;;;18.20;99.90;;;;;;5999010;23;19935;-65
2023/07/28 03:44:50;;;;;;;;;;;18.20;99.90;;;;;;6020494;23;19970;-69
2023/07/28 03:47:15;;;;;;;;;;;18.30;99.90;;;;;;6023054;23;20018;-69
2023/07/28 03:49:41;;;;;;;;;;;18.30;99.90;;;;;;6020668;23;19980;-70
2023/07/28 03:52:06;;;;;;;;;;;18.30;99.90;;;;;;6023421;23;19925;-69
2023/07/28 03:54:32;;;;;;;;;;;18.30;99.90;;;;;;6022329;23;19924;-69
2023/07/28 03:56:57;;;;;;;;;;;18.40;99.90;;;;;;6022523;23;19961;-70
2023/07/28 03:59:23;;;;;;;;;;;18.40;99.90;;;;;;6021774;23;19985;-70
2023/07/28 04:01:48;;;;;;;;;;;18.40;99.90;;;;;;6019928;23;20250;-69
2023/07/28 04:04:14;;;;;;;;;;;18.40;99.90;;;;;;6020874;23;19928;-70
2023/07/28 04:06:41;;;;;;;;;;;18.40;99.90;;;;;;6022101;23;20048;-69
2023/07/28 04:09:08;;;;;;;;;;;18.40;99.90;;;;;;6021272;23;19949;-69
2023/07/28 04:11:33;;;;;;;;;;;18.40;99.90;;;;;;6020704;23;19962;-69
2023/07/28 04:13:59;;;;;;;;;;;18.40;99.90;;;;;;6020702;23;19971;-70
2023/07/28 04:16:24;;;;;;;;;;;18.40;99.90;;;;;;6021802;23;20022;-70
2023/07/28 04:18:50;;;;;;;;;;;18.40;99.90;;;;;;5997897;23;19930;-70
2023/07/28 04:21:15;;;;;;;;;;;18.50;99.90;;;;;;6024082;23;19965;-69
2023/07/28 04:23:41;;;;;;;;;;;18.50;99.90;;;;;;6021158;23;20306;-69
2023/07/28 04:26:06;;;;;;;;;;;18.50;99.90;;;;;;6023887;23;19931;-70
2023/07/28 04:28:32;;;;;;;;;;;18.60;99.90;;;;;;6021881;23;19927;-69
2023/07/28 04:30:58;;;;;;;;;;;18.60;99.90;;;;;;6023586;23;20228;-70
2023/07/28 04:33:23;;;;;;;;;;;18.60;99.90;;;;;;6021009;23;20022;-71
2023/07/28 04:35:48;;;;;;;;;;;18.60;99.90;;;;;;6019566;23;20260;-69
2023/07/28 04:38:14;;;;;;;;;;;18.70;99.90;;;;;;6021498;23;19944;-69
2023/07/28 04:40:40;;;;;;;;;;;18.70;99.90;;;;;;6019573;23;20104;-70
2023/07/28 04:43:05;;;;;;;;;;;18.70;99.90;;;;;;6021532;23;19939;-69
2023/07/28 04:45:30;;;;;;;;;;;18.70;99.90;;;;;;6022744;23;20705;-69
2023/07/28 04:47:56;;;;;;;;;;;18.70;99.90;;;;;;6022370;23;20100;-69
2023/07/28 04:50:21;;;;;;;;;;;18.80;99.90;;;;;;6018158;23;19947;-69
2023/07/28 04:52:47;;;;;;;;;;;18.70;99.90;;;;;;6019496;23;19922;-69
2023/07/28 04:55:12;;;;;;;;;;;18.80;99.90;;;;;;6020092;23;20008;-69
2023/07/28 04:57:38;;;;;;;;;;;18.80;99.90;;;;;;6020795;23;20089;-65
2023/07/28 05:00:05;;;;;;;;;;;18.80;99.90;;;;;;6020807;23;19936;-65
2023/07/28 05:02:30;;;;;;;;;;;18.80;99.90;;;;;;5996319;23;19944;-65
2023/07/28 05:04:56;;;;;;;;;;;18.80;99.90;;;;;;6022959;23;20059;-65
2023/07/28 05:07:21;;;;;;;;;;;18.80;99.90;;;;;;6022759;23;19922;-65
2023/07/28 05:09:47;;;;;;;;;;;18.90;99.90;;;;;;6022324;23;20306;-65
2023/07/28 05:12:12;;;;;;;;;;;18.90;99.90;;;;;;6025234;23;19950;-65
2023/07/28 05:14:38;;;;;;;;;;;18.90;99.90;;;;;;6022739;23;19983;-65
2023/07/28 05:17:04;;;;;;;;;;;18.90;99.90;;;;;;6022765;23;19952;-65
2023/07/28 05:19:29;;;;;;;;;;;18.90;99.90;;;;;;6016687;23;20393;-64
2023/07/28 05:22:17;;;;;;;;;;;18.90;99.90;;;;;;6016121;23;20025;-65
2023/07/28 05:24:44;;;;;;;;;;;18.90;99.90;;;;;;6017717;23;19923;-65
2023/07/28 05:27:09;;;;;;;;;;;18.90;99.90;;;;;;5996999;23;20344;-65
2023/07/28 05:29:35;;;;;;;;;;;18.90;99.90;;;;;;6021810;23;19930;-65
2023/07/28 05:32:00;;;;;;;;;;;18.90;99.90;;;;;;6025522;23;19997;-65
2023/07/28 05:34:26;;;;;;;;;;;18.90;99.90;;;;;;6024784;23;19941;-65
2023/07/28 05:36:51;;;;;;;;;;;18.90;99.90;;;;;;6023792;23;20001;-65
2023/07/28 05:39:17;;;;;;;;;;;18.90;99.90;;;;;;6024175;23;20409;-65
2023/07/28 05:41:42;;;;;;;;;;;18.80;99.90;;;;;;6024524;23;19949;-64
2023/07/28 05:44:08;;;;;;;;;;;18.80;99.90;;;;;;6025285;23;20444;-65
2023/07/28 05:46:33;;;;;;;;;;;18.90;99.90;;;;;;6024919;23;20334;-65
2023/07/28 05:48:59;;;;;;;;;;;18.90;99.90;;;;;;6020451;23;19925;-64
2023/07/28 05:51:25;;;;;;;;;;;18.90;99.90;;;;;;5996074;23;19974;-65
2023/07/28 05:53:50;;;;;;;;;;;18.90;99.90;;;;;;6022758;23;19977;-69
2023/07/28 05:56:16;;;;;;;;;;;18.90;99.90;;;;;;6024525;23;20025;-70
2023/07/28 05:58:42;;;;;;;;;;;19.00;99.90;;;;;;5999140;23;19993;-70
2023/07/28 06:01:07;;;;;;;;;;;19.00;99.90;;;;;;6024121;23;20105;-69
2023/07/28 06:03:33;;;;;;;;;;;19.00;99.90;;;;;;6023788;23;19928;-71
2023/07/28 06:05:58;;;;;;;;;;;19.10;99.90;;;;;;6022397;23;20002;-70
2023/07/28 06:08:24;;;;;;;;;;;19.10;99.90;;;;;;6025431;23;19940;-70
2023/07/28 06:10:49;;;;;;;;;;;19.10;99.90;;;;;;6024741;23;20341;-70
2023/07/28 06:13:15;;;;;;;;;;;19.20;99.90;;;;;;6024462;23;19925;-70
2023/07/28 06:15:41;;;;;;;;;;;19.20;99.90;;;;;;6022753;23;19932;-69
2023/07/28 06:18:07;;;;;;;;;;;19.20;99.90;;;;;;6024720;23;19988;-70
2023/07/28 06:20:33;;;;;;;;;;;19.30;99.90;;;;;;6022274;23;19921;-70
2023/07/28 06:22:59;;;;;;;;;;;19.40;99.90;;;;;;6023146;23;19925;-70
2023/07/28 06:25:24;;;;;;;;;;;19.40;99.90;;;;;;6023220;23;20234;-70
2023/07/28 06:27:50;;;;;;;;;;;19.50;99.90;;;;;;6023810;23;19931;-71
2023/07/28 06:30:15;;;;;;;;;;;19.50;99.90;;;;;;6021838;23;20359;-65
2023/07/28 06:32:41;;;;;;;;;;;19.50;99.90;;;;;;6021702;23;20032;-65
2023/07/28 06:35:07;;;;;;;;;;;19.60;99.90;;;;;;6021420;23;19940;-65
2023/07/28 06:37:32;;;;;;;;;;;19.60;99.90;;;;;;6024022;23;20340;-64
2023/07/28 06:39:58;;;;;;;;;;;19.60;99.90;;;;;;6024065;23;19925;-64
2023/07/28 06:42:24;;;;;;;;;;;19.70;99.90;;;;;;6023723;23;19934;-65
2023/07/28 06:44:50;;;;;;;;;;;19.70;99.90;;;;;;6022402;23;20092;-65
2023/07/28 06:47:16;;;;;;;;;;;19.70;99.90;;;;;;6024842;23;19941;-66
2023/07/28 06:49:42;;;;;;;;;;;19.80;99.90;;;;;;6024926;23;19927;-78
2023/07/28 06:52:07;;;;;;;;;;;19.90;99.90;;;;;;6025975;23;20351;-70
2023/07/28 06:54:33;;;;;;;;;;;20.00;99.90;;;;;;6027586;23;20091;-70
2023/07/28 06:56:59;;;;;;;;;;;20.10;99.90;;;;;;6027502;23;19952;-71
2023/07/28 06:59:24;;;;;;;;;;;20.10;99.90;;;;;;6026234;23;19941;-69
2023/07/28 07:01:50;;;;;;;;;;;20.20;99.90;;;;;;6027906;23;19985;-69
2023/07/28 07:04:15;;;;;;;;;;;20.20;99.90;;;;;;6028645;23;20234;-70
2023/07/28 07:06:41;;;;;;;;;;;20.10;99.90;;;;;;6002235;23;20008;-70
2023/07/28 07:09:06;;;;;;;;;;;20.10;99.90;;;;;;6028912;23;19929;-65
2023/07/28 07:11:33;;;;;;;;;;;20.20;99.90;;;;;;6027504;23;19953;-65
2023/07/28 07:13:59;;;;;;;;;;;20.30;99.90;;;;;;6027631;23;19947;-66
2023/07/28 07:16:24;;;;;;;;;;;20.30;99.90;;;;;;6028919;23;19957;-65
2023/07/28 07:18:50;;;;;;;;;;;20.50;99.90;;;;;;6025259;23;20357;-66
2023/07/28 07:21:16;;;;;;;;;;;20.60;99.90;;;;;;6024614;23;19929;-66
2023/07/28 07:23:42;;;;;;;;;;;20.70;99.90;;;;;;6027216;23;20365;-65
2023/07/28 07:26:07;;;;;;;;;;;20.80;99.90;;;;;;6027294;23;19934;-70
2023/07/28 07:28:35;;;;;;;;;;;20.80;99.90;;;;;;6025114;23;19935;-71
2023/07/28 07:31:01;;;;;;;;;;;20.80;99.90;;;;;;6028936;23;19955;-70
2023/07/28 07:33:27;;;;;;;;;;;20.80;99.90;;;;;;6027355;23;19941;-70
2023/07/28 07:35:53;;;;;;;;;;;20.80;99.90;;;;;;6027534;23;19928;-70
2023/07/28 07:38:18;;;;;;;;;;;20.80;99.90;;;;;;6028990;23;19991;-70
2023/07/28 07:40:46;;;;;;;;;;;20.80;99.90;;;;;;6027732;23;19986;-70
2023/07/28 07:43:18;;;;;;;;;;;20.90;99.90;;;;;;6026492;23;20647;-71
2023/07/28 07:45:44;;;;;;;;;;;20.90;99.90;;;;;;6028104;23;19934;-66
2023/07/28 07:48:09;;;;;;;;;;;21.00;99.90;;;;;;6026900;23;19931;-66
2023/07/28 07:50:34;;;;;;;;;;;21.00;99.90;;;;;;6028292;23;19932;-66
2023/07/28 07:53:00;;;;;;;;;;;21.10;99.90;;;;;;6027303;23;19965;-66
2023/07/28 07:55:25;;;;;;;;;;;21.10;99.90;;;;;;6028348;23;19926;-66
2023/07/28 07:57:51;;;;;;;;;;;21.20;99.90;;;;;;6025360;23;19956;-66
2023/07/28 08:00:17;;;;;;;;;;;21.30;99.90;;;;;;6024566;23;19920;-65
2023/07/28 08:02:42;;;;;;;;;;;21.40;99.90;;;;;;6027262;23;19931;-65
2023/07/28 08:05:08;;;;;;;;;;;21.50;99.90;;;;;;6026038;23;19927;-65
2023/07/28 08:07:34;;;;;;;;;;;21.60;99.90;;;;;;6026060;23;19949;-65
2023/07/28 08:10:00;;;;;;;;;;;21.70;99.90;;;;;;6028138;23;19945;-64
2023/07/28 08:12:26;;;;;;;;;;;21.80;99.90;;;;;;6027722;23;20006;-65
2023/07/28 08:14:51;;;;;;;;;;;21.90;99.90;;;;;;6026610;23;19971;-65
2023/07/28 08:17:17;;;;;;;;;;;22.00;99.90;;;;;;6026908;23;20712;-65
2023/07/28 08:19:42;;;;;;;;;;;22.00;99.90;;;;;;6027680;23;20316;-65
2023/07/28 08:22:08;;;;;;;;;;;22.00;99.90;;;;;;6025710;23;19938;-65
2023/07/28 08:24:33;;;;;;;;;;;22.10;99.90;;;;;;5999380;23;20037;-65
2023/07/28 08:26:59;;;;;;;;;;;22.10;99.90;;;;;;6023030;23;19923;-65
2023/07/28 08:29:25;;;;;;;;;;;22.10;99.90;;;;;;6022494;23;19927;-65
2023/07/28 08:31:51;;;;;;;;;;;22.10;99.90;;;;;;6025892;23;19920;-65
2023/07/28 08:34:17;;;;;;;;;;;22.10;99.90;;;;;;6025313;23;20025;-65
2023/07/28 08:36:43;;;;;;;;;;;22.20;99.90;;;;;;6026613;23;19957;-65
2023/07/28 08:39:09;;;;;;;;;;;22.20;99.90;;;;;;6026313;23;19984;-65
2023/07/28 08:41:35;;;;;;;;;;;22.20;99.90;;;;;;6027164;23;19991;-65
2023/07/28 08:44:00;;;;;;;;;;;22.30;99.90;;;;;;6024213;23;19962;-65
2023/07/28 08:46:26;;;;;;;;;;;22.30;99.90;;;;;;6025822;23;19928;-65
2023/07/28 08:48:51;;;;;;;;;;;22.30;99.90;;;;;;6027334;23;19920;-65
2023/07/28 08:51:17;;;;;;;;;;;22.30;99.90;;;;;;6027440;23;19944;-65
2023/07/28 08:53:42;;;;;;;;;;;22.30;99.90;;;;;;6026553;23;19987;-65
2023/07/28 08:56:08;;;;;;;;;;;22.30;99.90;;;;;;6026972;23;19951;-65
2023/07/28 08:58:34;;;;;;;;;;;22.30;99.90;;;;;;6025997;23;19998;-70
2023/07/28 09:01:02;;;;;;;;;;;22.30;99.90;;;;;;6026248;23;19925;-70
2023/07/28 09:03:28;;;;;;;;;;;22.40;99.90;;;;;;6027485;23;20319;-70
2023/07/28 09:06:03;;;;;;;;;;;22.40;99.90;;;;;;6025645;23;19934;-70
2023/07/28 09:08:32;;;;;;;;;;;22.50;99.90;;;;;;6026604;23;19926;-70
2023/07/28 09:11:00;;;;;;;;;;;22.70;99.90;;;;;;6018869;23;20256;-70
2023/07/28 09:13:34;;;;;;;;;;;22.90;99.90;;;;;;6017697;23;19930;-70
2023/07/28 09:16:00;;;;;;;;;;;23.00;99.90;;;;;;6025286;23;19999;-65
2023/07/28 09:18:27;;;;;;;;;;;23.10;99.90;;;;;;6026693;23;19999;-65
2023/07/28 09:20:53;;;;;;;;;;;23.10;99.90;;;;;;6023447;23;19962;-65
2023/07/28 09:23:27;;;;;;;;;;;23.20;99.90;;;;;;6025284;23;19927;-65
2023/07/28 09:25:58;;;;;;;;;;;23.30;99.90;;;;;;6024079;23;19920;-65
2023/07/28 09:28:35;;;;;;;;;;;23.40;99.90;;;;;;6023205;23;19931;-66
2023/07/28 09:31:04;;;;;;;;;;;23.50;99.90;;;;;;6024171;23;19929;-65
2023/07/28 09:33:30;;;;;;;;;;;23.60;99.90;;;;;;6025058;23;19965;-65
2023/07/28 09:35:55;;;;;;;;;;;23.60;99.90;;;;;;6025439;23;20365;-65
2023/07/28 09:38:21;;;;;;;;;;;23.60;99.90;;;;;;6020780;23;19949;-65
2023/07/28 09:40:48;;;;;;;;;;;23.60;99.90;;;;;;6025467;23;19975;-65
2023/07/28 09:45:58;;;;;;;;;;;23.80;99.90;;;;;;6022817;23;20742;-65
2023/07/28 09:48:24;;;;;;;;;;;23.90;99.90;;;;;;5998445;23;19929;-65
2023/07/28 09:50:50;;;;;;;;;;;24.00;99.90;;;;;;6025221;23;19929;-65
2023/07/28 09:53:16;;;;;;;;;;;24.10;99.90;;;;;;6024377;23;20025;-66
2023/07/28 09:55:42;;;;;;;;;;;24.20;99.90;;;;;;6029856;23;19926;-65
2023/07/28 09:58:09;;;;;;;;;;;24.30;99.90;;;;;;6023324;23;20358;-65
2023/07/28 10:00:35;;;;;;;;;;;24.40;99.90;;;;;;6026543;23;19931;-65
2023/07/28 10:03:02;;;;;;;;;;;24.40;99.90;;;;;;6027029;23;20299;-65
2023/07/28 10:05:28;;;;;;;;;;;24.50;99.90;;;;;;6025448;23;19997;-65
2023/07/28 10:07:53;;;;;;;;;;;24.60;99.90;;;;;;6028832;23;19924;-66
2023/07/28 10:10:19;;;;;;;;;;;24.70;99.90;;;;;;6026284;23;19924;-65
2023/07/28 10:12:52;;;;;;;;;;;24.80;99.90;;;;;;6023831;23;19961;-70
2023/07/28 10:15:19;;;;;;;;;;;24.80;99.90;;;;;;6025664;23;19932;-70
2023/07/28 10:17:46;;;;;;;;;;;24.80;99.90;;;;;;6027231;23;19963;-71
2023/07/28 10:20:32;;;;;;;;;;;24.90;99.90;;;;;;6026125;23;19964;-69
2023/07/28 10:23:07;;;;;;;;;;;24.90;99.90;;;;;;6025460;23;19925;-70
2023/07/28 10:25:36;;;;;;;;;;;24.90;99.90;;;;;;6026302;23;19923;-70
2023/07/28 10:28:04;;;;;;;;;;;24.90;99.90;;;;;;6026543;23;19974;-70
2023/07/28 10:30:34;;;;;;;;;;;25.10;99.90;;;;;;6025146;23;19924;-70
2023/07/28 10:33:00;;;;;;;;;;;25.20;99.90;;;;;;6027216;23;20339;-70
2023/07/28 10:35:26;;;;;;;;;;;25.20;99.90;;;;;;6025779;23;19962;-69
2023/07/28 10:37:53;;;;;;;;;;;25.30;99.90;;;;;;6025558;23;19952;-70
2023/07/28 10:40:22;;;;;;;;;;;25.30;99.90;;;;;;6023521;23;19925;-70
2023/07/28 10:42:47;;;;;;;;;;;25.40;99.90;;;;;;6027448;23;19927;-69
2023/07/28 10:45:13;;;;;;;;;;;25.50;99.90;;;;;;6027022;23;20020;-70
2023/07/28 10:47:39;;;;;;;;;;;25.50;99.90;;;;;;6028752;23;20346;-66
2023/07/28 10:50:05;;;;;;;;;;;25.50;99.30;;;;;;6025191;23;19960;-70
2023/07/28 10:52:30;;;;;;;;;;;25.50;99.90;;;;;;6026998;23;19961;-69
2023/07/28 10:54:57;;;;;;;;;;;25.50;99.90;;;;;;6025325;23;19925;-70
2023/07/28 10:57:26;;;;;;;;;;;25.60;99.90;;;;;;6026240;23;19951;-70
2023/07/28 10:59:51;;;;;;;;;;;25.70;99.60;;;;;;6026244;23;19931;-70
2023/07/28 11:02:17;;;;;;;;;;;25.70;98.70;;;;;;6027262;23;20024;-68
2023/07/28 11:04:47;;;;;;;;;;;25.80;99.10;;;;;;6025624;23;19923;-68
2023/07/28 11:07:13;;;;;;;;;;;25.80;99.40;;;;;;6027418;23;19938;-69
2023/07/28 11:09:38;;;;;;;;;;;25.80;99.40;;;;;;6023933;23;19957;-70
2023/07/28 11:12:08;;;;;;;;;;;25.80;99.90;;;;;;6025098;23;19928;-69
2023/07/28 11:14:34;;;;;;;;;;;25.90;98.80;;;;;;6027421;23;20015;-70
2023/07/28 11:17:01;;;;;;;;;;;25.90;99.80;;;;;;6027366;23;20007;-70
2023/07/28 11:19:26;;;;;;;;;;;25.80;98.80;;;;;;6027175;23;19925;-70
2023/07/28 11:21:53;;;;;;;;;;;25.70;99.50;;;;;;6025911;23;19932;-70
2023/07/28 11:24:19;;;;;;;;;;;25.70;99.90;;;;;;6028471;23;19928;-70
2023/07/28 11:26:48;;;;;;;;;;;25.70;99.90;;;;;;6027618;23;19932;-70
2023/07/28 11:29:13;;;;;;;;;;;25.70;99.80;;;;;;6027771;23;19926;-71
2023/07/28 11:31:41;;;;;;;;;;;25.70;99.90;;;;;;6028031;23;19926;-71
2023/07/28 11:34:13;;;;;;;;;;;25.80;99.90;;;;;;6027263;23;20033;-69
2023/07/28 11:36:41;;;;;;;;;;;25.90;99.80;;;;;;6000478;23;19975;-70
2023/07/28 11:39:06;;;;;;;;;;;25.90;99.90;;;;;;6027181;23;20001;-70
2023/07/28 11:41:32;;;;;;;;;;;26.00;99.70;;;;;;6027672;23;19952;-70
2023/07/28 11:43:58;;;;;;;;;;;26.10;99.90;;;;;;6025386;23;19965;-69
2023/07/28 11:46:34;;;;;;;;;;;26.20;99.90;;;;;;6001955;23;19925;-70
2023/07/28 11:49:13;;;;;;;;;;;26.30;99.30;;;;;;6028145;23;19996;-71
2023/07/28 11:51:43;;;;;;;;;;;26.40;99.90;;;;;;6027135;23;19925;-70
2023/07/28 11:54:16;;;;;;;;;;;26.50;99.90;;;;;;6027527;23;19949;-70
2023/07/28 11:56:43;;;;;;;;;;;26.60;99.50;;;;;;6026038;23;20021;-71
2023/07/28 11:59:09;;;;;;;;;;;26.60;97.80;;;;;;6025930;23;19943;-71
2023/07/28 12:01:34;;;;;;;;;;;26.50;99.90;;;;;;5998291;23;20186;-72
2023/07/28 12:04:18;;;;;;;;;;;26.60;99.60;;;;;;6026419;23;20343;-73
2023/07/28 12:07:06;;;;;;;;;;;26.70;99.70;;;;;;6026632;23;19928;-73
2023/07/28 12:09:52;;;;;;;;;;;26.80;99.90;;;;;;6026936;23;20063;-72
2023/07/28 12:12:18;;;;;;;;;;;26.90;98.10;;;;;;6026094;23;19930;-72
2023/07/28 12:14:46;;;;;;;;;;;26.90;99.40;;;;;;6001145;23;19924;-72
2023/07/28 12:17:17;;;;;;;;;;;27.00;98.00;;;;;;6025888;23;19978;-72
2023/07/28 12:19:59;;;;;;;;;;;26.90;98.30;;;;;;6027669;23;19926;-72
2023/07/28 12:22:28;;;;;;;;;;;27.00;97.80;;;;;;6026082;23;19938;-73
2023/07/28 12:24:54;;;;;;;;;;;26.90;98.40;;;;;;6026877;23;19922;-72
2023/07/28 12:27:24;;;;;;;;;;;26.90;97.40;;;;;;6026491;23;20404;-72
2023/07/28 12:29:50;;;;;;;;;;;27.00;97.20;;;;;;6026918;23;20362;-73
2023/07/28 12:32:16;;;;;;;;;;;27.10;97.10;;;;;;6026719;23;19950;-73
2023/07/28 12:34:41;;;;;;;;;;;27.10;98.80;;;;;;6025610;23;20347;-73
2023/07/28 12:37:07;;;;;;;;;;;27.30;98.70;;;;;;6024633;23;20483;-72
2023/07/28 12:39:35;;;;;;;;;;;27.30;96.40;;;;;;6027215;23;19929;-70
2023/07/28 12:42:01;;;;;;;;;;;27.30;97.80;;;;;;6024211;23;19983;-67
2023/07/28 12:44:27;;;;;;;;;;;27.30;97.90;;;;;;6023541;23;19962;-67
2023/07/28 12:46:53;;;;;;;;;;;27.40;98.30;;;;;;6023371;23;19989;-67
2023/07/28 12:49:19;;;;;;;;;;;27.40;98.20;;;;;;6026836;23;20332;-67
2023/07/28 12:51:45;;;;;;;;;;;27.50;99.10;;;;;;6024706;23;20094;-68
2023/07/28 12:54:10;;;;;;;;;;;27.60;97.90;;;;;;6024500;23;20425;-68
2023/07/28 12:56:36;;;;;;;;;;;27.60;98.70;;;;;;6025330;23;19953;-68
2023/07/28 12:59:01;;;;;;;;;;;27.60;97.30;;;;;;6024881;23;19953;-68
2023/07/28 13:01:27;;;;;;;;;;;27.60;97.80;;;;;;6023229;23;19955;-67
2023/07/28 13:03:53;;;;;;;;;;;27.70;96.20;;;;;;6025538;23;20003;-68
2023/07/28 13:06:19;;;;;;;;;;;27.60;96.70;;;;;;6026250;23;19933;-67
2023/07/28 13:08:44;;;;;;;;;;;27.50;97.00;;;;;;6024486;23;19920;-67
2023/07/28 13:11:10;;;;;;;;;;;27.50;96.60;;;;;;6026431;23;19927;-67
2023/07/28 13:13:35;;;;;;;;;;;27.60;96.60;;;;;;5998698;23;20426;-67
2023/07/28 13:16:01;;;;;;;;;;;27.70;95.90;;;;;;6026266;23;19948;-69
2023/07/28 13:18:26;;;;;;;;;;;27.70;96.30;;;;;;6024880;23;19999;-69
2023/07/28 13:20:52;;;;;;;;;;;27.80;95.60;;;;;;6022365;23;19922;-68
2023/07/28 13:23:17;;;;;;;;;;;27.90;95.70;;;;;;6024554;23;20359;-72
2023/07/28 13:25:43;;;;;;;;;;;28.00;94.60;;;;;;6024384;23;20077;-72
2023/07/28 13:28:08;;;;;;;;;;;28.00;95.60;;;;;;6027564;23;19935;-72
2023/07/28 13:30:34;;;;;;;;;;;27.90;95.00;;;;;;6027826;23;19942;-72
2023/07/28 13:33:01;;;;;;;;;;;27.70;95.40;;;;;;6029349;23;19916;-72
2023/07/28 13:35:26;;;;;;;;;;;27.60;95.90;;;;;;6027345;23;19934;-72
2023/07/28 13:37:52;;;;;;;;;;;27.40;95.50;;;;;;6027341;23;19949;-71
2023/07/28 13:40:17;;;;;;;;;;;27.30;96.00;;;;;;6027771;23;19926;-71
2023/07/28 13:42:43;;;;;;;;;;;27.30;95.80;;;;;;6024855;23;19935;-71
2023/07/28 13:45:09;;;;;;;;;;;27.30;95.40;;;;;;6020427;23;20628;-72
2023/07/28 13:47:34;;;;;;;;;;;27.30;96.80;;;;;;6027001;23;19921;-72
2023/07/28 13:50:00;;;;;;;;;;;27.40;96.80;;;;;;6026590;23;20003;-68
2023/07/28 13:52:25;;;;;;;;;;;27.50;96.60;;;;;;6027175;23;20458;-67
2023/07/28 13:54:51;;;;;;;;;;;27.60;96.70;;;;;;6024603;23;20347;-68
2023/07/28 13:57:16;;;;;;;;;;;27.70;97.70;;;;;;6025633;23;20027;-68
2023/07/28 13:59:42;;;;;;;;;;;27.80;97.20;;;;;;6024666;23;19938;-68
2023/07/28 14:02:08;;;;;;;;;;;28.00;95.80;;;;;;6025097;23;19958;-68
2023/07/28 14:04:34;;;;;;;;;;;28.00;95.50;;;;;;6027517;23;19949;-67
2023/07/28 14:06:59;;;;;;;;;;;28.00;95.80;;;;;;6001041;23;19932;-69
2023/07/28 14:09:25;;;;;;;;;;;27.90;95.20;;;;;;6026689;23;20264;-68
2023/07/28 14:11:50;;;;;;;;;;;27.80;94.10;;;;;;6028308;23;19956;-69
2023/07/28 14:14:16;;;;;;;;;;;27.70;93.30;;;;;;6026539;23;20606;-69